Badger, Kansas
Current Conditions -  °F | °C
As of 3:53 AM on Saturday 29 Nov 2014 (Local Time) from KJLN Reporting Station
Clear Clear  
Wind Chill: 54°   Ceiling: Unl
Heat Index: 54°   Visibility: 10mi
Dew Point: 46°   Wind: 14mph
Humidity: 75%   Direction: 190°S
Pressure: 29.78"   Gusts: NA
Location:  37.0394°N, 94.6644°W
Report Text: KJLN 290953Z AUTO 19012KT 10SM CLR 12/08 A2978 RMK AO2 SLP079 T01220078
Loading
Personal Weather Stations






























Interactive Weather Map New forecast layout! Learn more

10-Day Weather Forecast

Advertisements
Track Severe Weather on mobile